sensor_id;sensor_type;location;lat;lon;timestamp;P1;durP1;ratioP1;P2;durP2;ratioP2
72904;SDS011;61048;52.162;4.516;2023-04-03T00:00:48;3.58;;;0.95;;
72904;SDS011;61048;52.162;4.516;2023-04-03T00:03:15;1.35;;;0.30;;
72904;SDS011;61048;52.162;4.516;2023-04-03T00:05:42;1.83;;;0.40;;
72904;SDS011;61048;52.162;4.516;2023-04-03T00:08:11;3.85;;;0.77;;
72904;SDS011;61048;52.162;4.516;2023-04-03T00:10:38;1.85;;;0.43;;
72904;SDS011;61048;52.162;4.516;2023-04-03T00:13:05;1.27;;;0.50;;
72904;SDS011;61048;52.162;4.516;2023-04-03T00:15:33;1.27;;;0.30;;
72904;SDS011;61048;52.162;4.516;2023-04-03T00:18:00;1.65;;;0.40;;
72904;SDS011;61048;52.162;4.516;2023-04-03T00:20:27;2.88;;;0.40;;
72904;SDS011;61048;52.162;4.516;2023-04-03T00:22:54;3.15;;;0.30;;
72904;SDS011;61048;52.162;4.516;2023-04-03T00:25:22;2.20;;;0.60;;
72904;SDS011;61048;52.162;4.516;2023-04-03T00:27:49;2.60;;;0.50;;
72904;SDS011;61048;52.162;4.516;2023-04-03T00:30:17;1.05;;;0.30;;
72904;SDS011;61048;52.162;4.516;2023-04-03T00:32:47;2.15;;;0.60;;
72904;SDS011;61048;52.162;4.516;2023-04-03T00:35:14;1.00;;;0.30;;
72904;SDS011;61048;52.162;4.516;2023-04-03T00:37:41;1.25;;;0.32;;
72904;SDS011;61048;52.162;4.516;2023-04-03T00:40:09;1.23;;;0.35;;
72904;SDS011;61048;52.162;4.516;2023-04-03T00:42:38;1.15;;;0.40;;
72904;SDS011;61048;52.162;4.516;2023-04-03T00:45:23;1.35;;;0.43;;
72904;SDS011;61048;52.162;4.516;2023-04-03T00:47:52;1.42;;;0.38;;
72904;SDS011;61048;52.162;4.516;2023-04-03T00:50:20;1.08;;;0.32;;
72904;SDS011;61048;52.162;4.516;2023-04-03T00:52:47;2.63;;;0.50;;
72904;SDS011;61048;52.162;4.516;2023-04-03T00:55:15;1.65;;;0.30;;
72904;SDS011;61048;52.162;4.516;2023-04-03T00:57:44;1.42;;;0.30;;
72904;SDS011;61048;52.162;4.516;2023-04-03T01:00:13;0.93;;;0.25;;
72904;SDS011;61048;52.162;4.516;2023-04-03T01:02:43;1.00;;;0.60;;
72904;SDS011;61048;52.162;4.516;2023-04-03T01:05:09;1.63;;;0.40;;
72904;SDS011;61048;52.162;4.516;2023-04-03T01:07:37;1.40;;;0.20;;
72904;SDS011;61048;52.162;4.516;2023-04-03T01:10:07;1.85;;;0.45;;
72904;SDS011;61048;52.162;4.516;2023-04-03T01:12:39;1.17;;;0.40;;
72904;SDS011;61048;52.162;4.516;2023-04-03T01:15:09;1.42;;;0.40;;
72904;SDS011;61048;52.162;4.516;2023-04-03T01:17:39;0.93;;;0.40;;
72904;SDS011;61048;52.162;4.516;2023-04-03T01:23:12;1.13;;;0.43;;
72904;SDS011;61048;52.162;4.516;2023-04-03T01:25:52;1.17;;;0.40;;
72904;SDS011;61048;52.162;4.516;2023-04-03T01:28:22;1.23;;;0.20;;
72904;SDS011;61048;52.162;4.516;2023-04-03T01:30:53;1.70;;;0.35;;
72904;SDS011;61048;52.162;4.516;2023-04-03T01:33:28;1.38;;;0.50;;
72904;SDS011;61048;52.162;4.516;2023-04-03T01:35:55;1.23;;;0.30;;
72904;SDS011;61048;52.162;4.516;2023-04-03T01:38:22;1.35;;;0.25;;
72904;SDS011;61048;52.162;4.516;2023-04-03T01:40:49;1.45;;;0.40;;
72904;SDS011;61048;52.162;4.516;2023-04-03T01:43:16;0.65;;;0.20;;
72904;SDS011;61048;52.162;4.516;2023-04-03T01:45:43;1.15;;;0.40;;
72904;SDS011;61048;52.162;4.516;2023-04-03T01:48:11;1.88;;;0.68;;
72904;SDS011;61048;52.162;4.516;2023-04-03T01:50:40;1.23;;;0.38;;
72904;SDS011;61048;52.162;4.516;2023-04-03T01:53:07;1.30;;;0.38;;
72904;SDS011;61048;52.162;4.516;2023-04-03T01:55:34;1.80;;;0.22;;
72904;SDS011;61048;52.162;4.516;2023-04-03T01:58:01;2.60;;;0.57;;
72904;SDS011;61048;52.162;4.516;2023-04-03T02:00:28;1.52;;;0.32;;
72904;SDS011;61048;52.162;4.516;2023-04-03T02:02:55;1.15;;;0.30;;
72904;SDS011;61048;52.162;4.516;2023-04-03T02:05:23;1.83;;;0.60;;
72904;SDS011;61048;52.162;4.516;2023-04-03T02:07:52;1.60;;;0.25;;
72904;SDS011;61048;52.162;4.516;2023-04-03T02:10:19;2.30;;;0.28;;
72904;SDS011;61048;52.162;4.516;2023-04-03T02:12:45;1.77;;;0.38;;
72904;SDS011;61048;52.162;4.516;2023-04-03T02:15:12;1.42;;;0.75;;
72904;SDS011;61048;52.162;4.516;2023-04-03T02:17:39;0.98;;;0.28;;
72904;SDS011;61048;52.162;4.516;2023-04-03T02:20:07;0.80;;;0.30;;
72904;SDS011;61048;52.162;4.516;2023-04-03T02:22:34;1.60;;;0.32;;
72904;SDS011;61048;52.162;4.516;2023-04-03T02:25:03;0.60;;;0.15;;
72904;SDS011;61048;52.162;4.516;2023-04-03T02:27:30;1.38;;;0.30;;
72904;SDS011;61048;52.162;4.516;2023-04-03T02:29:57;1.98;;;0.30;;
72904;SDS011;61048;52.162;4.516;2023-04-03T02:32:24;1.63;;;0.20;;
72904;SDS011;61048;52.162;4.516;2023-04-03T02:34:51;1.08;;;0.30;;
72904;SDS011;61048;52.162;4.516;2023-04-03T02:37:18;0.73;;;0.28;;
72904;SDS011;61048;52.162;4.516;2023-04-03T02:39:45;2.05;;;0.30;;
72904;SDS011;61048;52.162;4.516;2023-04-03T02:42:14;0.77;;;0.20;;
72904;SDS011;61048;52.162;4.516;2023-04-03T02:44:40;3.67;;;0.30;;
72904;SDS011;61048;52.162;4.516;2023-04-03T02:47:07;2.08;;;0.30;;
72904;SDS011;61048;52.162;4.516;2023-04-03T02:49:34;0.88;;;0.32;;
72904;SDS011;61048;52.162;4.516;2023-04-03T02:52:01;1.25;;;0.30;;
72904;SDS011;61048;52.162;4.516;2023-04-03T02:54:28;0.95;;;0.25;;
72904;SDS011;61048;52.162;4.516;2023-04-03T02:56:55;2.05;;;0.45;;
72904;SDS011;61048;52.162;4.516;2023-04-03T02:59:24;1.77;;;0.40;;
72904;SDS011;61048;52.162;4.516;2023-04-03T03:01:51;1.10;;;0.30;;
72904;SDS011;61048;52.162;4.516;2023-04-03T03:04:18;1.23;;;0.35;;
72904;SDS011;61048;52.162;4.516;2023-04-03T03:06:45;0.93;;;0.30;;
72904;SDS011;61048;52.162;4.516;2023-04-03T03:09:12;1.20;;;0.20;;
72904;SDS011;61048;52.162;4.516;2023-04-03T03:11:39;1.50;;;0.40;;
72904;SDS011;61048;52.162;4.516;2023-04-03T03:14:06;4.15;;;0.30;;
72904;SDS011;61048;52.162;4.516;2023-04-03T03:16:34;1.75;;;0.40;;
72904;SDS011;61048;52.162;4.516;2023-04-03T03:19:01;0.68;;;0.30;;
72904;SDS011;61048;52.162;4.516;2023-04-03T03:21:28;2.42;;;0.30;;
72904;SDS011;61048;52.162;4.516;2023-04-03T03:23:55;2.30;;;0.52;;
72904;SDS011;61048;52.162;4.516;2023-04-03T03:26:22;1.38;;;0.40;;
72904;SDS011;61048;52.162;4.516;2023-04-03T03:28:49;2.67;;;0.28;;
72904;SDS011;61048;52.162;4.516;2023-04-03T03:31:16;1.52;;;0.40;;
72904;SDS011;61048;52.162;4.516;2023-04-03T03:33:44;1.17;;;0.35;;
72904;SDS011;61048;52.162;4.516;2023-04-03T03:36:11;1.55;;;0.22;;
72904;SDS011;61048;52.162;4.516;2023-04-03T03:38:38;4.00;;;0.90;;
72904;SDS011;61048;52.162;4.516;2023-04-03T03:41:05;1.15;;;0.30;;
72904;SDS011;61048;52.162;4.516;2023-04-03T03:43:31;2.33;;;0.30;;
72904;SDS011;61048;52.162;4.516;2023-04-03T03:45:58;1.00;;;0.22;;
72904;SDS011;61048;52.162;4.516;2023-04-03T03:48:25;2.22;;;0.50;;
72904;SDS011;61048;52.162;4.516;2023-04-03T03:50:53;1.33;;;0.28;;
72904;SDS011;61048;52.162;4.516;2023-04-03T03:53:20;2.25;;;0.43;;
72904;SDS011;61048;52.162;4.516;2023-04-03T03:55:47;1.10;;;0.25;;
72904;SDS011;61048;52.162;4.516;2023-04-03T03:58:14;2.60;;;0.40;;
72904;SDS011;61048;52.162;4.516;2023-04-03T04:00:41;2.25;;;0.30;;
72904;SDS011;61048;52.162;4.516;2023-04-03T04:03:08;2.13;;;0.25;;
72904;SDS011;61048;52.162;4.516;2023-04-03T04:05:35;1.90;;;0.20;;
72904;SDS011;61048;52.162;4.516;2023-04-03T04:08:03;1.08;;;0.30;;
72904;SDS011;61048;52.162;4.516;2023-04-03T04:10:30;1.75;;;0.30;;
72904;SDS011;61048;52.162;4.516;2023-04-03T04:12:57;1.38;;;0.30;;
72904;SDS011;61048;52.162;4.516;2023-04-03T04:15:24;1.95;;;0.20;;
72904;SDS011;61048;52.162;4.516;2023-04-03T04:17:51;3.45;;;0.30;;
72904;SDS011;61048;52.162;4.516;2023-04-03T04:20:19;1.50;;;0.40;;
72904;SDS011;61048;52.162;4.516;2023-04-03T04:22:45;1.10;;;0.35;;
72904;SDS011;61048;52.162;4.516;2023-04-03T04:25:14;2.53;;;0.50;;
72904;SDS011;61048;52.162;4.516;2023-04-03T04:27:41;1.30;;;0.43;;
72904;SDS011;61048;52.162;4.516;2023-04-03T04:30:08;2.40;;;0.40;;
72904;SDS011;61048;52.162;4.516;2023-04-03T04:32:36;1.58;;;0.68;;
72904;SDS011;61048;52.162;4.516;2023-04-03T04:35:04;1.83;;;0.30;;
72904;SDS011;61048;52.162;4.516;2023-04-03T04:37:31;1.00;;;0.20;;
72904;SDS011;61048;52.162;4.516;2023-04-03T04:39:58;2.38;;;0.30;;
72904;SDS011;61048;52.162;4.516;2023-04-03T04:42:26;2.00;;;0.32;;
72904;SDS011;61048;52.162;4.516;2023-04-03T04:44:53;2.25;;;0.40;;
72904;SDS011;61048;52.162;4.516;2023-04-03T04:47:20;2.75;;;0.25;;
72904;SDS011;61048;52.162;4.516;2023-04-03T04:49:46;1.10;;;0.30;;
72904;SDS011;61048;52.162;4.516;2023-04-03T04:52:13;0.80;;;0.30;;
72904;SDS011;61048;52.162;4.516;2023-04-03T04:54:40;1.48;;;0.30;;
72904;SDS011;61048;52.162;4.516;2023-04-03T04:57:07;23.75;;;3.92;;
72904;SDS011;61048;52.162;4.516;2023-04-03T04:59:36;23.33;;;4.65;;
72904;SDS011;61048;52.162;4.516;2023-04-03T05:02:03;18.20;;;3.05;;
72904;SDS011;61048;52.162;4.516;2023-04-03T05:04:30;16.55;;;3.40;;
72904;SDS011;61048;52.162;4.516;2023-04-03T05:06:59;16.85;;;2.65;;
72904;SDS011;61048;52.162;4.516;2023-04-03T05:09:26;16.20;;;2.70;;
72904;SDS011;61048;52.162;4.516;2023-04-03T05:11:53;15.60;;;2.45;;
72904;SDS011;61048;52.162;4.516;2023-04-03T05:14:21;14.68;;;2.80;;
72904;SDS011;61048;52.162;4.516;2023-04-03T05:16:49;13.60;;;2.38;;
72904;SDS011;61048;52.162;4.516;2023-04-03T05:19:18;16.55;;;2.67;;
72904;SDS011;61048;52.162;4.516;2023-04-03T05:21:45;11.93;;;2.25;;
72904;SDS011;61048;52.162;4.516;2023-04-03T05:24:12;9.93;;;2.38;;
72904;SDS011;61048;52.162;4.516;2023-04-03T05:26:39;16.08;;;2.20;;
72904;SDS011;61048;52.162;4.516;2023-04-03T05:29:06;12.10;;;2.20;;
72904;SDS011;61048;52.162;4.516;2023-04-03T05:31:34;10.23;;;1.73;;
72904;SDS011;61048;52.162;4.516;2023-04-03T05:34:02;12.27;;;1.73;;
72904;SDS011;61048;52.162;4.516;2023-04-03T05:36:29;6.25;;;1.90;;
72904;SDS011;61048;52.162;4.516;2023-04-03T05:38:56;6.85;;;1.50;;
72904;SDS011;61048;52.162;4.516;2023-04-03T05:41:23;9.50;;;1.27;;
72904;SDS011;61048;52.162;4.516;2023-04-03T05:43:50;12.10;;;1.63;;
72904;SDS011;61048;52.162;4.516;2023-04-03T05:46:18;5.90;;;1.10;;
72904;SDS011;61048;52.162;4.516;2023-04-03T05:48:47;9.32;;;1.73;;
72904;SDS011;61048;52.162;4.516;2023-04-03T05:51:16;6.35;;;1.45;;
72904;SDS011;61048;52.162;4.516;2023-04-03T05:53:45;9.32;;;1.77;;
72904;SDS011;61048;52.162;4.516;2023-04-03T05:56:12;5.95;;;0.90;;
72904;SDS011;61048;52.162;4.516;2023-04-03T05:58:39;8.10;;;1.20;;
72904;SDS011;61048;52.162;4.516;2023-04-03T06:01:06;5.78;;;1.75;;
72904;SDS011;61048;52.162;4.516;2023-04-03T06:03:33;11.07;;;1.05;;
72904;SDS011;61048;52.162;4.516;2023-04-03T06:06:02;5.55;;;1.30;;
72904;SDS011;61048;52.162;4.516;2023-04-03T06:08:32;6.85;;;1.27;;
72904;SDS011;61048;52.162;4.516;2023-04-03T06:10:59;11.50;;;1.30;;
72904;SDS011;61048;52.162;4.516;2023-04-03T06:13:27;6.20;;;1.25;;
72904;SDS011;61048;52.162;4.516;2023-04-03T06:15:54;4.55;;;1.13;;
72904;SDS011;61048;52.162;4.516;2023-04-03T06:18:21;6.70;;;1.40;;
72904;SDS011;61048;52.162;4.516;2023-04-03T06:20:49;5.43;;;1.20;;
72904;SDS011;61048;52.162;4.516;2023-04-03T06:23:16;5.20;;;1.17;;
72904;SDS011;61048;52.162;4.516;2023-04-03T06:25:44;5.55;;;0.80;;
72904;SDS011;61048;52.162;4.516;2023-04-03T06:28:11;3.42;;;0.52;;
72904;SDS011;61048;52.162;4.516;2023-04-03T06:30:38;4.10;;;0.57;;
72904;SDS011;61048;52.162;4.516;2023-04-03T06:33:05;3.60;;;0.70;;
72904;SDS011;61048;52.162;4.516;2023-04-03T06:35:32;5.32;;;0.88;;
72904;SDS011;61048;52.162;4.516;2023-04-03T06:38:01;4.90;;;0.80;;
72904;SDS011;61048;52.162;4.516;2023-04-03T06:40:29;2.97;;;0.70;;
72904;SDS011;61048;52.162;4.516;2023-04-03T06:42:58;3.28;;;0.93;;
72904;SDS011;61048;52.162;4.516;2023-04-03T06:45:24;5.70;;;0.57;;
72904;SDS011;61048;52.162;4.516;2023-04-03T06:47:52;7.32;;;0.70;;
72904;SDS011;61048;52.162;4.516;2023-04-03T06:50:19;6.80;;;0.90;;
72904;SDS011;61048;52.162;4.516;2023-04-03T06:52:46;3.85;;;0.77;;
72904;SDS011;61048;52.162;4.516;2023-04-03T06:55:13;2.65;;;0.50;;
72904;SDS011;61048;52.162;4.516;2023-04-03T06:57:40;2.95;;;0.60;;
72904;SDS011;61048;52.162;4.516;2023-04-03T07:00:10;3.05;;;1.35;;
72904;SDS011;61048;52.162;4.516;2023-04-03T07:02:38;1.45;;;0.32;;
72904;SDS011;61048;52.162;4.516;2023-04-03T07:05:05;4.57;;;0.75;;
72904;SDS011;61048;52.162;4.516;2023-04-03T07:07:34;3.78;;;0.60;;
72904;SDS011;61048;52.162;4.516;2023-04-03T07:10:01;2.53;;;0.60;;
72904;SDS011;61048;52.162;4.516;2023-04-03T07:12:28;2.28;;;0.60;;
72904;SDS011;61048;52.162;4.516;2023-04-03T07:14:54;2.95;;;0.77;;
72904;SDS011;61048;52.162;4.516;2023-04-03T07:17:23;4.30;;;0.73;;
72904;SDS011;61048;52.162;4.516;2023-04-03T07:19:50;3.28;;;0.70;;
72904;SDS011;61048;52.162;4.516;2023-04-03T07:22:17;2.40;;;0.60;;
72904;SDS011;61048;52.162;4.516;2023-04-03T07:24:44;4.07;;;0.82;;
72904;SDS011;61048;52.162;4.516;2023-04-03T07:27:11;2.58;;;0.70;;
72904;SDS011;61048;52.162;4.516;2023-04-03T07:29:38;4.20;;;0.47;;
72904;SDS011;61048;52.162;4.516;2023-04-03T07:32:05;1.75;;;0.52;;
72904;SDS011;61048;52.162;4.516;2023-04-03T07:34:34;2.67;;;0.70;;
72904;SDS011;61048;52.162;4.516;2023-04-03T07:37:01;2.08;;;0.50;;
72904;SDS011;61048;52.162;4.516;2023-04-03T07:39:28;2.70;;;0.70;;
72904;SDS011;61048;52.162;4.516;2023-04-03T07:41:54;3.00;;;0.80;;
72904;SDS011;61048;52.162;4.516;2023-04-03T07:44:21;3.20;;;0.60;;
72904;SDS011;61048;52.162;4.516;2023-04-03T07:46:48;2.90;;;0.75;;
72904;SDS011;61048;52.162;4.516;2023-04-03T07:49:15;3.35;;;0.70;;
72904;SDS011;61048;52.162;4.516;2023-04-03T07:51:44;3.63;;;0.60;;
72904;SDS011;61048;52.162;4.516;2023-04-03T07:54:11;2.72;;;0.52;;
72904;SDS011;61048;52.162;4.516;2023-04-03T07:56:38;4.43;;;0.75;;
72904;SDS011;61048;52.162;4.516;2023-04-03T07:59:05;3.75;;;1.13;;
72904;SDS011;61048;52.162;4.516;2023-04-03T08:01:32;2.63;;;0.50;;
72904;SDS011;61048;52.162;4.516;2023-04-03T08:03:59;2.70;;;0.52;;
72904;SDS011;61048;52.162;4.516;2023-04-03T08:06:27;1.83;;;0.40;;
72904;SDS011;61048;52.162;4.516;2023-04-03T08:08:56;2.08;;;0.70;;
72904;SDS011;61048;52.162;4.516;2023-04-03T08:11:24;2.13;;;0.73;;
72904;SDS011;61048;52.162;4.516;2023-04-03T08:13:52;3.42;;;0.65;;
72904;SDS011;61048;52.162;4.516;2023-04-03T08:16:20;3.63;;;0.65;;
72904;SDS011;61048;52.162;4.516;2023-04-03T08:18:50;1.60;;;0.50;;
72904;SDS011;61048;52.162;4.516;2023-04-03T08:21:17;3.08;;;0.52;;
72904;SDS011;61048;52.162;4.516;2023-04-03T08:23:44;2.10;;;0.45;;
72904;SDS011;61048;52.162;4.516;2023-04-03T08:26:15;2.53;;;0.50;;
72904;SDS011;61048;52.162;4.516;2023-04-03T08:28:43;2.17;;;0.88;;
72904;SDS011;61048;52.162;4.516;2023-04-03T08:31:11;4.30;;;0.63;;
72904;SDS011;61048;52.162;4.516;2023-04-03T08:33:40;3.22;;;0.63;;
72904;SDS011;61048;52.162;4.516;2023-04-03T08:36:14;2.67;;;0.70;;
72904;SDS011;61048;52.162;4.516;2023-04-03T08:38:44;3.15;;;0.77;;
72904;SDS011;61048;52.162;4.516;2023-04-03T08:41:12;3.40;;;0.63;;
72904;SDS011;61048;52.162;4.516;2023-04-03T08:43:51;2.22;;;0.65;;
72904;SDS011;61048;52.162;4.516;2023-04-03T08:46:24;1.95;;;0.55;;
72904;SDS011;61048;52.162;4.516;2023-04-03T08:48:59;3.60;;;0.60;;
72904;SDS011;61048;52.162;4.516;2023-04-03T08:51:26;3.47;;;0.68;;
72904;SDS011;61048;52.162;4.516;2023-04-03T08:53:55;3.13;;;0.50;;
72904;SDS011;61048;52.162;4.516;2023-04-03T08:56:28;3.75;;;0.60;;
72904;SDS011;61048;52.162;4.516;2023-04-03T08:58:57;2.53;;;0.40;;
72904;SDS011;61048;52.162;4.516;2023-04-03T09:01:27;3.92;;;0.55;;
72904;SDS011;61048;52.162;4.516;2023-04-03T09:03:59;2.72;;;0.68;;
72904;SDS011;61048;52.162;4.516;2023-04-03T09:06:28;2.25;;;0.52;;
72904;SDS011;61048;52.162;4.516;2023-04-03T09:09:02;4.13;;;0.73;;
72904;SDS011;61048;52.162;4.516;2023-04-03T09:11:42;2.45;;;0.38;;
72904;SDS011;61048;52.162;4.516;2023-04-03T09:14:16;3.88;;;0.73;;
72904;SDS011;61048;52.162;4.516;2023-04-03T09:16:52;1.70;;;0.43;;
72904;SDS011;61048;52.162;4.516;2023-04-03T09:19:23;3.08;;;0.65;;
72904;SDS011;61048;52.162;4.516;2023-04-03T09:21:59;1.88;;;0.47;;
72904;SDS011;61048;52.162;4.516;2023-04-03T09:24:35;2.70;;;0.70;;
72904;SDS011;61048;52.162;4.516;2023-04-03T09:27:05;2.45;;;0.38;;
72904;SDS011;61048;52.162;4.516;2023-04-03T09:29:36;1.90;;;0.50;;
72904;SDS011;61048;52.162;4.516;2023-04-03T09:32:12;2.30;;;0.35;;
72904;SDS011;61048;52.162;4.516;2023-04-03T09:34:45;1.50;;;0.50;;
72904;SDS011;61048;52.162;4.516;2023-04-03T09:37:32;2.35;;;0.35;;
72904;SDS011;61048;52.162;4.516;2023-04-03T09:40:01;1.08;;;0.22;;
72904;SDS011;61048;52.162;4.516;2023-04-03T09:42:31;2.60;;;0.45;;
72904;SDS011;61048;52.162;4.516;2023-04-03T09:44:59;3.00;;;0.30;;
72904;SDS011;61048;52.162;4.516;2023-04-03T09:47:27;1.95;;;0.38;;
72904;SDS011;61048;52.162;4.516;2023-04-03T09:50:09;2.25;;;0.43;;
72904;SDS011;61048;52.162;4.516;2023-04-03T09:52:45;1.85;;;0.30;;
72904;SDS011;61048;52.162;4.516;2023-04-03T09:55:13;2.15;;;0.32;;
72904;SDS011;61048;52.162;4.516;2023-04-03T09:57:43;1.73;;;0.30;;
72904;SDS011;61048;52.162;4.516;2023-04-03T10:00:19;3.08;;;0.52;;
72904;SDS011;61048;52.162;4.516;2023-04-03T10:02:49;2.70;;;0.55;;
72904;SDS011;61048;52.162;4.516;2023-04-03T10:05:25;4.30;;;0.45;;
72904;SDS011;61048;52.162;4.516;2023-04-03T10:08:06;2.05;;;0.32;;
72904;SDS011;61048;52.162;4.516;2023-04-03T10:10:35;3.38;;;0.40;;
72904;SDS011;61048;52.162;4.516;2023-04-03T10:13:04;2.30;;;0.40;;
72904;SDS011;61048;52.162;4.516;2023-04-03T10:15:34;3.70;;;0.30;;
72904;SDS011;61048;52.162;4.516;2023-04-03T10:18:06;3.13;;;0.30;;
72904;SDS011;61048;52.162;4.516;2023-04-03T10:20:51;1.77;;;0.38;;
72904;SDS011;61048;52.162;4.516;2023-04-03T10:23:21;3.58;;;0.30;;
72904;SDS011;61048;52.162;4.516;2023-04-03T10:25:54;1.15;;;0.50;;
72904;SDS011;61048;52.162;4.516;2023-04-03T10:28:35;1.52;;;0.35;;
72904;SDS011;61048;52.162;4.516;2023-04-03T10:31:10;1.77;;;0.50;;
72904;SDS011;61048;52.162;4.516;2023-04-03T10:33:53;1.80;;;0.22;;
72904;SDS011;61048;52.162;4.516;2023-04-03T10:36:29;2.00;;;0.35;;
72904;SDS011;61048;52.162;4.516;2023-04-03T10:39:05;1.67;;;0.38;;
72904;SDS011;61048;52.162;4.516;2023-04-03T10:41:45;1.25;;;0.40;;
72904;SDS011;61048;52.162;4.516;2023-04-03T10:44:24;2.05;;;0.30;;
72904;SDS011;61048;52.162;4.516;2023-04-03T10:47:00;2.47;;;0.43;;
72904;SDS011;61048;52.162;4.516;2023-04-03T10:49:35;1.70;;;0.30;;
72904;SDS011;61048;52.162;4.516;2023-04-03T10:52:12;1.20;;;0.20;;
72904;SDS011;61048;52.162;4.516;2023-04-03T10:54:46;1.30;;;0.35;;
72904;SDS011;61048;52.162;4.516;2023-04-03T10:57:21;1.88;;;0.55;;
72904;SDS011;61048;52.162;4.516;2023-04-03T10:59:53;1.30;;;0.28;;
72904;SDS011;61048;52.162;4.516;2023-04-03T11:02:23;1.10;;;0.20;;
72904;SDS011;61048;52.162;4.516;2023-04-03T11:04:56;0.93;;;0.30;;
72904;SDS011;61048;52.162;4.516;2023-04-03T11:07:27;1.42;;;0.20;;
72904;SDS011;61048;52.162;4.516;2023-04-03T11:10:00;0.63;;;0.20;;
72904;SDS011;61048;52.162;4.516;2023-04-03T11:12:36;3.40;;;0.22;;
72904;SDS011;61048;52.162;4.516;2023-04-03T11:15:12;1.88;;;0.30;;
72904;SDS011;61048;52.162;4.516;2023-04-03T11:17:41;1.00;;;0.20;;
72904;SDS011;61048;52.162;4.516;2023-04-03T11:20:14;2.65;;;0.30;;
72904;SDS011;61048;52.162;4.516;2023-04-03T11:22:47;1.30;;;0.20;;
72904;SDS011;61048;52.162;4.516;2023-04-03T11:25:18;0.88;;;0.20;;
72904;SDS011;61048;52.162;4.516;2023-04-03T11:27:48;2.53;;;0.22;;
72904;SDS011;61048;52.162;4.516;2023-04-03T11:30:23;2.42;;;0.20;;
72904;SDS011;61048;52.162;4.516;2023-04-03T11:33:13;0.70;;;0.20;;
72904;SDS011;61048;52.162;4.516;2023-04-03T11:35:59;1.35;;;0.22;;
72904;SDS011;61048;52.162;4.516;2023-04-03T11:43:28;1.27;;;0.22;;
72904;SDS011;61048;52.162;4.516;2023-04-03T11:45:58;0.70;;;0.20;;
72904;SDS011;61048;52.162;4.516;2023-04-03T11:51:39;1.50;;;0.13;;
72904;SDS011;61048;52.162;4.516;2023-04-03T12:12:41;0.93;;;0.50;;
72904;SDS011;61048;52.162;4.516;2023-04-03T12:24:36;1.05;;;0.40;;
72904;SDS011;61048;52.162;4.516;2023-04-03T12:29:53;3.42;;;0.40;;
72904;SDS011;61048;52.162;4.516;2023-04-03T12:32:32;1.73;;;0.10;;
72904;SDS011;61048;52.162;4.516;2023-04-03T12:37:48;2.20;;;0.30;;
72904;SDS011;61048;52.162;4.516;2023-04-03T12:40:27;0.85;;;0.28;;
72904;SDS011;61048;52.162;4.516;2023-04-03T12:43:11;1.23;;;0.30;;
72904;SDS011;61048;52.162;4.516;2023-04-03T12:45:49;2.00;;;0.50;;
72904;SDS011;61048;52.162;4.516;2023-04-03T12:48:24;1.20;;;0.13;;
72904;SDS011;61048;52.162;4.516;2023-04-03T12:50:54;1.15;;;0.22;;
72904;SDS011;61048;52.162;4.516;2023-04-03T12:53:24;2.63;;;0.30;;
72904;SDS011;61048;52.162;4.516;2023-04-03T12:55:55;1.80;;;0.40;;
72904;SDS011;61048;52.162;4.516;2023-04-03T12:58:24;0.93;;;0.20;;
72904;SDS011;61048;52.162;4.516;2023-04-03T13:01:00;0.93;;;0.20;;
72904;SDS011;61048;52.162;4.516;2023-04-03T13:03:28;1.38;;;0.57;;
72904;SDS011;61048;52.162;4.516;2023-04-03T13:05:58;1.08;;;0.22;;
72904;SDS011;61048;52.162;4.516;2023-04-03T13:08:28;1.00;;;0.20;;
72904;SDS011;61048;52.162;4.516;2023-04-03T13:10:56;3.20;;;0.30;;
72904;SDS011;61048;52.162;4.516;2023-04-03T13:13:27;1.92;;;0.15;;
72904;SDS011;61048;52.162;4.516;2023-04-03T13:15:55;1.77;;;0.30;;
72904;SDS011;61048;52.162;4.516;2023-04-03T13:18:26;1.40;;;0.30;;
72904;SDS011;61048;52.162;4.516;2023-04-03T13:20:58;1.77;;;0.20;;
72904;SDS011;61048;52.162;4.516;2023-04-03T13:23:29;0.77;;;0.52;;
72904;SDS011;61048;52.162;4.516;2023-04-03T13:25:58;1.63;;;0.50;;
72904;SDS011;61048;52.162;4.516;2023-04-03T13:28:28;2.08;;;0.43;;
72904;SDS011;61048;52.162;4.516;2023-04-03T13:31:07;1.38;;;0.30;;
72904;SDS011;61048;52.162;4.516;2023-04-03T13:33:43;1.58;;;0.43;;
72904;SDS011;61048;52.162;4.516;2023-04-03T13:36:23;1.17;;;0.47;;
72904;SDS011;61048;52.162;4.516;2023-04-03T13:39:04;1.52;;;0.20;;
72904;SDS011;61048;52.162;4.516;2023-04-03T13:41:33;1.00;;;0.25;;
72904;SDS011;61048;52.162;4.516;2023-04-03T13:44:16;1.15;;;0.20;;
72904;SDS011;61048;52.162;4.516;2023-04-03T13:46:54;0.95;;;0.40;;
72904;SDS011;61048;52.162;4.516;2023-04-03T13:49:31;1.48;;;0.50;;
72904;SDS011;61048;52.162;4.516;2023-04-03T13:52:03;1.40;;;0.20;;
72904;SDS011;61048;52.162;4.516;2023-04-03T13:54:48;1.45;;;0.32;;
72904;SDS011;61048;52.162;4.516;2023-04-03T13:57:20;0.88;;;0.20;;
72904;SDS011;61048;52.162;4.516;2023-04-03T13:59:47;1.55;;;0.38;;
72904;SDS011;61048;52.162;4.516;2023-04-03T14:02:16;1.60;;;0.30;;
72904;SDS011;61048;52.162;4.516;2023-04-03T14:04:49;0.80;;;0.25;;
72904;SDS011;61048;52.162;4.516;2023-04-03T14:07:22;1.95;;;0.65;;
72904;SDS011;61048;52.162;4.516;2023-04-03T14:09:50;1.42;;;0.30;;
72904;SDS011;61048;52.162;4.516;2023-04-03T14:12:18;1.20;;;0.28;;
72904;SDS011;61048;52.162;4.516;2023-04-03T14:14:51;3.60;;;0.63;;
72904;SDS011;61048;52.162;4.516;2023-04-03T14:17:19;1.52;;;0.40;;
72904;SDS011;61048;52.162;4.516;2023-04-03T14:19:47;0.88;;;0.20;;
72904;SDS011;61048;52.162;4.516;2023-04-03T14:22:17;1.50;;;0.40;;
72904;SDS011;61048;52.162;4.516;2023-04-03T14:24:48;1.40;;;0.35;;
72904;SDS011;61048;52.162;4.516;2023-04-03T14:27:17;0.80;;;0.20;;
72904;SDS011;61048;52.162;4.516;2023-04-03T14:29:45;0.88;;;0.30;;
72904;SDS011;61048;52.162;4.516;2023-04-03T14:32:14;2.15;;;0.40;;
72904;SDS011;61048;52.162;4.516;2023-04-03T14:34:42;1.88;;;0.20;;
72904;SDS011;61048;52.162;4.516;2023-04-03T14:37:10;1.30;;;0.25;;
72904;SDS011;61048;52.162;4.516;2023-04-03T14:39:39;1.27;;;0.60;;
72904;SDS011;61048;52.162;4.516;2023-04-03T14:42:09;1.67;;;0.22;;
72904;SDS011;61048;52.162;4.516;2023-04-03T14:44:41;1.65;;;0.22;;
72904;SDS011;61048;52.162;4.516;2023-04-03T14:47:09;1.65;;;0.40;;
72904;SDS011;61048;52.162;4.516;2023-04-03T14:49:38;1.02;;;0.47;;
72904;SDS011;61048;52.162;4.516;2023-04-03T14:52:05;1.95;;;0.30;;
72904;SDS011;61048;52.162;4.516;2023-04-03T14:54:32;1.58;;;0.28;;
72904;SDS011;61048;52.162;4.516;2023-04-03T14:56:59;1.55;;;0.40;;
72904;SDS011;61048;52.162;4.516;2023-04-03T14:59:28;1.30;;;0.40;;
72904;SDS011;61048;52.162;4.516;2023-04-03T15:01:56;1.73;;;0.30;;
72904;SDS011;61048;52.162;4.516;2023-04-03T15:04:23;1.15;;;0.40;;
72904;SDS011;61048;52.162;4.516;2023-04-03T15:06:50;1.00;;;0.30;;
72904;SDS011;61048;52.162;4.516;2023-04-03T15:09:19;0.90;;;0.22;;
72904;SDS011;61048;52.162;4.516;2023-04-03T15:11:47;1.08;;;0.30;;
72904;SDS011;61048;52.162;4.516;2023-04-03T15:14:14;2.47;;;0.20;;
72904;SDS011;61048;52.162;4.516;2023-04-03T15:16:43;1.58;;;0.25;;
72904;SDS011;61048;52.162;4.516;2023-04-03T15:19:09;1.48;;;0.30;;
72904;SDS011;61048;52.162;4.516;2023-04-03T15:21:37;1.20;;;0.20;;
72904;SDS011;61048;52.162;4.516;2023-04-03T15:24:05;0.93;;;0.25;;
72904;SDS011;61048;52.162;4.516;2023-04-03T15:26:32;1.48;;;0.32;;
72904;SDS011;61048;52.162;4.516;2023-04-03T15:28:59;1.63;;;0.47;;
72904;SDS011;61048;52.162;4.516;2023-04-03T15:31:27;1.77;;;0.30;;
72904;SDS011;61048;52.162;4.516;2023-04-03T15:33:55;2.58;;;0.52;;
72904;SDS011;61048;52.162;4.516;2023-04-03T15:36:22;2.00;;;0.35;;
72904;SDS011;61048;52.162;4.516;2023-04-03T15:38:49;1.42;;;0.38;;
72904;SDS011;61048;52.162;4.516;2023-04-03T15:41:16;1.45;;;0.38;;
72904;SDS011;61048;52.162;4.516;2023-04-03T15:43:43;3.15;;;0.40;;
72904;SDS011;61048;52.162;4.516;2023-04-03T15:46:10;1.90;;;0.30;;